Tropical Cyclones
[Index]
Main Index Home Page Stock Weather Photos Extreme Storms Discussion Storm News and Storm Chasing Reports Tropical Cyclones / Hurricanes / Typhoons Weather Data and Links Wild Fires / Bushfires Weather Observation Techniques Weather Picture Catalogue Tornado Pictures and Reports Stock Video Footage and DVDs for sale
Season 2006-2007 Tropical Cyclone DORA Track Map
Season 2006-2007 Summaries (Operational Data): [AU] [SIO] [SPAC] [SH]
<<- Previous TC | 2006-2007 Season | Next TC ->>

click for intensity scale information  Lat/long Grid: Show Hide

 Date Labels: Show Hide

Operational Tropical Cyclone Data : JTWC Advisories

Name: DORA
Number: 0710

28 Jan 2007 06:00 UTC to 12 Feb 2007 18:00 UTC

    date/time    lat    long     hPa   cat  kts
2007-01-28 06    7.9    66.7    1003         20          
2007-01-28 12    9.0    66.4    1002         25          
2007-01-28 18    9.8    67.4    1001         25          
2007-01-29 00   10.6    66.9    1000         25          
2007-01-29 06   11.8    66.7     999         30          
2007-01-29 12   12.3    65.5     996    1    35          
2007-01-29 18   12.7    65.4     994    1    40          
2007-01-30 00   12.5    65.0     985    2    50          
2007-01-30 06   12.7    65.7     985    2    50          
2007-01-30 12   13.2    65.4     978    2    60          
2007-01-30 18   13.3    65.5     975    2    60          
2007-01-31 00   13.5    65.9     975    2    60          
2007-01-31 06   13.9    65.9     975    2    60          
2007-01-31 12   14.0    65.9     976    2    60          
2007-01-31 18   14.3    66.3     973    2    60          
2007-02-01 00   14.8    66.8     973    2    60          
2007-02-01 06   14.9    67.2     970    3    65          
2007-02-01 12   15.5    67.5     970    3    70          
2007-02-01 18   16.1    68.3     955    3    80          
2007-02-02 00   16.9    68.4     947    3    85          
2007-02-02 06   17.6    68.2     947    3    85          
2007-02-02 12   17.8    68.0     955    3    80          
2007-02-02 18   18.1    67.9     942    4    95          
2007-02-03 00   18.5    67.6     942    4    95          
2007-02-03 06   18.6    67.4     942    4    95          
2007-02-03 12   18.8    67.2     930    4   100          
2007-02-03 18   18.8    67.0     930    4   100          
2007-02-04 00   18.8    67.1     935    4    95          
2007-02-04 06   18.9    67.3     950    3    85          
2007-02-04 12   19.2    66.6     955    3    80          
2007-02-04 18   19.1    66.6     968    3    65          
2007-02-05 00   19.3    66.5     978    2    60          
2007-02-05 06   19.1    66.0     980    2    55          
2007-02-05 12   19.3    65.4     985    2    50          
2007-02-05 18   19.2    65.1     986    2    50          
2007-02-06 00   19.5    64.6     986    2    50          
2007-02-06 06   20.1    64.9     987    2    50          
2007-02-06 12   20.5    64.3     987    1    45          
2007-02-06 18   21.0    63.8     990    1    40          
2007-02-07 00   21.3    63.2     990    1    40          
2007-02-07 06   21.6    63.2     990    1    40          
2007-02-07 12   22.3    63.3     990    1    40          
2007-02-07 18   23.3    63.6     990    1    40          
2007-02-08 00   24.2    63.2     990    1    40          
2007-02-08 06   24.8    63.1     990    1    45          
2007-02-08 12   25.1    62.6     990    1    45          
2007-02-08 18   25.1    62.6     990    1    45          
2007-02-09 00   25.4    62.5     990    1    45          
2007-02-09 06   26.1    61.6     992    1    45          
2007-02-09 12   26.5    61.5     992    2    50          
2007-02-09 18   27.4    60.5     992    2    50          
2007-02-10 00   27.2    58.9     992    2    50          
2007-02-10 06   27.7    58.0     992    2    50          
2007-02-10 12   28.7    57.2     995    2    50          
2007-02-10 18   29.3    55.8     995    2    50          
2007-02-11 00   29.9    55.0     990    2    50          
2007-02-11 06   30.1    53.9     985    1    40          
2007-02-11 12   31.0    53.2     987    1    40          
2007-02-11 18   32.2    51.5     987    1    40          
2007-02-12 00   33.0    50.5     992    1    40          
2007-02-12 06   34.3    50.0     992    1    40          
2007-02-12 12   36.0    49.4     992    1    40          
2007-02-12 18   37.8    49.2     992    1    40          
Winds are 10-min average.

Tropical cyclone tracks developed by Michael Bath using operational warnings and advisories and Google Maps.


[Australian Severe Weather index] [Copyright Notice] [Email Contacts] [Search This Site] [Privacy Policy]
Document: tropical_cyclone_dora.htm Updated: 28 May 2013